createdAt,value
2018-02-15T00:00:41.283Z,23.73
2018-02-15T00:03:10.152Z,25.23
2018-02-15T00:05:38.231Z,20.10
2018-02-15T00:08:06.324Z,24.70
2018-02-15T00:10:35.177Z,25.37
2018-02-15T00:13:03.288Z,23.13
2018-02-15T00:15:32.139Z,25.83
2018-02-15T00:18:00.248Z,22.37
2018-02-15T00:20:29.113Z,19.80
2018-02-15T00:22:57.238Z,20.80
2018-02-15T00:25:25.373Z,24.27
2018-02-15T00:27:53.446Z,22.03
2018-02-15T00:30:21.588Z,22.40
2018-02-15T00:32:49.687Z,23.33
2018-02-15T00:35:17.843Z,24.37
2018-02-15T00:37:45.952Z,21.60
2018-02-15T00:40:14.827Z,20.17
2018-02-15T00:42:43.728Z,24.30
2018-02-15T00:45:13.672Z,21.97
2018-02-15T00:47:41.795Z,21.70
2018-02-15T00:50:09.889Z,21.60
2018-02-15T00:52:38.020Z,20.37
2018-02-15T00:55:06.104Z,21.40
2018-02-15T00:57:34.238Z,21.70
2018-02-15T01:00:02.331Z,22.00
2018-02-15T01:02:30.419Z,23.70
2018-02-15T01:04:58.531Z,24.30
2018-02-15T01:07:28.432Z,23.00
2018-02-15T01:09:57.328Z,21.33
2018-02-15T01:12:26.193Z,17.03
2018-02-15T01:14:54.297Z,20.30
2018-02-15T01:17:23.206Z,19.57
2018-02-15T01:19:51.320Z,22.50
2018-02-15T01:22:19.419Z,18.47
2018-02-15T01:24:48.656Z,20.07
2018-02-15T01:27:16.900Z,19.60
2018-02-15T01:29:45.113Z,18.60
2018-02-15T01:32:13.288Z,19.03
2018-02-15T01:34:41.825Z,20.20
2018-02-15T01:37:10.846Z,20.33
2018-02-15T01:39:39.051Z,18.17
2018-02-15T01:42:07.541Z,22.20
2018-02-15T01:44:36.345Z,19.37
2018-02-15T01:47:04.449Z,21.47
2018-02-15T01:49:32.542Z,18.60
2018-02-15T01:52:00.655Z,15.40
2018-02-15T01:54:29.053Z,20.60
2018-02-15T01:56:57.327Z,20.00
2018-02-15T01:59:25.577Z,19.93
2018-02-15T02:01:53.687Z,20.83
2018-02-15T02:04:23.626Z,20.73
2018-02-15T02:06:51.933Z,21.43
2018-02-15T02:09:20.233Z,20.30
2018-02-15T02:11:48.592Z,20.53
2018-02-15T02:14:16.724Z,20.60
2018-02-15T02:16:44.836Z,23.30
2018-02-15T02:19:13.435Z,22.97
2018-02-15T02:21:41.713Z,18.83
2018-02-15T02:24:12.303Z,19.90
2018-02-15T02:26:40.532Z,21.00
2018-02-15T02:29:08.992Z,26.07
2018-02-15T02:31:37.269Z,20.50
2018-02-15T02:34:05.635Z,17.67
2018-02-15T02:36:33.760Z,23.83
2018-02-15T02:39:02.787Z,20.20
2018-02-15T02:41:30.889Z,24.30
2018-02-15T02:43:58.991Z,18.37
2018-02-15T02:46:27.080Z,21.70
2018-02-15T02:48:55.203Z,20.43
2018-02-15T02:51:23.296Z,19.17
2018-02-15T02:53:51.413Z,18.57
2018-02-15T02:56:19.496Z,20.00
2018-02-15T02:58:47.620Z,27.03
2018-02-15T03:01:15.729Z,21.93
2018-02-15T03:03:44.811Z,21.90
2018-02-15T03:06:13.702Z,20.20
2018-02-15T03:08:42.699Z,19.30
2018-02-15T03:11:11.583Z,25.43
2018-02-15T03:13:40.818Z,21.30
2018-02-15T03:16:09.040Z,21.00
2018-02-15T03:18:37.206Z,23.83
2018-02-15T03:21:05.352Z,22.57
2018-02-15T03:23:33.477Z,30.93
2018-02-15T03:26:02.392Z,21.97
2018-02-15T03:28:30.519Z,20.40
2018-02-15T03:30:58.669Z,23.60
2018-02-15T03:33:26.786Z,20.57
2018-02-15T03:35:54.938Z,24.30
2018-02-15T03:38:23.041Z,22.53
2018-02-15T03:40:51.144Z,22.73
2018-02-15T03:43:19.245Z,26.33
2018-02-15T03:45:47.339Z,23.23
2018-02-15T03:48:15.423Z,24.67
2018-02-15T03:50:43.504Z,27.30
2018-02-15T03:53:11.638Z,24.97
2018-02-15T03:55:39.760Z,26.27
2018-02-15T03:58:07.866Z,23.83
2018-02-15T04:00:35.965Z,28.40
2018-02-15T04:03:04.063Z,29.40
2018-02-15T04:05:33.856Z,33.40
2018-02-15T04:08:01.948Z,26.10
2018-02-15T04:10:30.118Z,29.97
2018-02-15T04:12:58.975Z,33.80
2018-02-15T04:15:27.069Z,32.47
2018-02-15T04:17:55.178Z,30.50
2018-02-15T04:20:24.825Z,32.30
2018-02-15T04:22:52.975Z,33.60
2018-02-15T04:25:21.088Z,35.20
2018-02-15T04:27:49.179Z,39.13
2018-02-15T04:30:17.272Z,34.23
2018-02-15T04:32:45.356Z,33.43
2018-02-15T04:35:13.472Z,34.40
2018-02-15T04:37:41.593Z,35.70
2018-02-15T04:40:09.692Z,40.00
2018-02-15T04:42:37.854Z,40.67
2018-02-15T04:45:05.960Z,38.07
2018-02-15T04:47:34.093Z,39.87
2018-02-15T04:50:02.168Z,40.33
2018-02-15T04:52:30.325Z,39.73
2018-02-15T04:54:58.396Z,39.00
2018-02-15T04:57:26.522Z,38.60
2018-02-15T04:59:55.004Z,44.90
2018-02-15T05:02:23.376Z,41.60
2018-02-15T05:04:51.532Z,36.47
2018-02-15T05:07:19.647Z,42.47
2018-02-15T05:09:47.800Z,40.80
2018-02-15T05:12:16.385Z,34.77
2018-02-15T05:14:44.578Z,43.20
2018-02-15T05:17:14.645Z,37.23
2018-02-15T05:19:42.793Z,41.37
2018-02-15T05:22:10.933Z,41.73
2018-02-15T05:24:39.021Z,41.80
2018-02-15T05:27:07.913Z,41.57
2018-02-15T05:29:36.824Z,47.33
2018-02-15T05:32:05.414Z,41.17
2018-02-15T05:34:33.549Z,43.00
2018-02-15T05:37:01.685Z,48.50
2018-02-15T05:39:29.935Z,39.27
2018-02-15T05:42:00.709Z,45.50
2018-02-15T05:44:28.872Z,41.67
2018-02-15T05:46:57.137Z,45.70
2018-02-15T05:49:25.283Z,42.87
2018-02-15T05:51:54.164Z,49.70
2018-02-15T05:54:23.032Z,37.67
2018-02-15T05:56:51.123Z,43.83
2018-02-15T05:59:19.233Z,38.17
2018-02-15T06:01:47.347Z,36.03
2018-02-15T06:04:21.560Z,36.83
2018-02-15T06:06:50.604Z,37.93
2018-02-15T06:09:18.719Z,45.17
2018-02-15T06:11:48.118Z,42.50
2018-02-15T06:14:16.237Z,38.47
2018-02-15T06:16:44.396Z,38.53
2018-02-15T06:19:12.471Z,36.00
2018-02-15T06:21:41.335Z,40.57
2018-02-15T06:24:17.443Z,36.63
2018-02-15T06:26:56.216Z,37.80
2018-02-15T06:29:27.676Z,36.63
2018-02-15T06:31:56.565Z,34.37
2018-02-15T06:34:25.584Z,35.40
2018-02-15T06:36:54.468Z,35.90
2018-02-15T06:39:23.313Z,30.97
2018-02-15T06:41:52.143Z,35.03
2018-02-15T06:44:20.937Z,31.03
2018-02-15T06:46:49.842Z,31.73
2018-02-15T06:49:17.927Z,34.77
2018-02-15T06:51:47.039Z,37.17
2018-02-15T06:54:15.149Z,37.27
2018-02-15T06:56:43.280Z,37.43
2018-02-15T06:59:11.379Z,34.90
2018-02-15T07:01:39.473Z,45.77
2018-02-15T07:10:54.968Z,35.70
2018-02-15T07:13:27.520Z,33.43
2018-02-15T07:15:57.263Z,35.33
2018-02-15T07:21:03.925Z,32.63
2018-02-15T07:23:32.061Z,32.40
2018-02-15T07:26:02.758Z,40.73
2018-02-15T07:31:30.712Z,36.33
2018-02-15T07:34:00.867Z,39.17
2018-02-15T07:36:29.124Z,36.23
2018-02-15T07:38:57.234Z,34.77
2018-02-15T07:41:25.334Z,43.73
2018-02-15T07:43:54.245Z,36.40
2018-02-15T07:46:43.425Z,34.87
2018-02-15T07:49:18.730Z,30.93
2018-02-15T07:54:45.718Z,32.30
2018-02-15T07:57:13.819Z,32.90
2018-02-15T07:59:41.963Z,31.87
2018-02-15T08:02:10.068Z,31.70
2018-02-15T08:04:38.209Z,34.00
2018-02-15T08:07:06.970Z,31.07
2018-02-15T08:09:36.518Z,37.37
2018-02-15T08:12:05.576Z,31.67
2018-02-15T08:14:35.224Z,36.03
2018-02-15T08:17:03.364Z,30.53
2018-02-15T08:19:33.063Z,31.23
2018-02-15T08:22:02.506Z,32.67
2018-02-15T08:24:30.675Z,32.83
2018-02-15T08:26:58.789Z,34.77
2018-02-15T08:29:27.029Z,33.07
2018-02-15T08:31:55.113Z,29.50
2018-02-15T08:34:23.219Z,34.97
2018-02-15T08:36:51.341Z,38.13
2018-02-15T08:39:20.810Z,34.20
2018-02-15T08:41:50.184Z,57.50
2018-02-15T08:44:18.357Z,40.67
2018-02-15T08:46:46.479Z,34.03
2018-02-15T08:49:14.786Z,31.57
2018-02-15T08:51:43.736Z,31.93
2018-02-15T08:54:12.596Z,29.90
2018-02-15T08:56:41.290Z,34.07
2018-02-15T08:59:09.446Z,39.30
2018-02-15T09:01:37.568Z,38.37
2018-02-15T09:04:06.434Z,34.20
2018-02-15T09:06:34.526Z,35.03
2018-02-15T09:09:03.420Z,40.43
2018-02-15T09:11:32.325Z,37.50
2018-02-15T09:14:00.466Z,36.87
2018-02-15T09:16:28.581Z,33.57
2018-02-15T09:18:57.601Z,35.77
2018-02-15T09:21:25.701Z,39.87
2018-02-15T09:23:53.827Z,40.07
2018-02-15T09:26:21.945Z,32.20
2018-02-15T09:28:50.058Z,35.37
2018-02-15T09:31:18.167Z,36.70
2018-02-15T09:33:46.268Z,32.47
2018-02-15T09:36:15.167Z,39.60
2018-02-15T09:38:43.261Z,39.47
2018-02-15T09:41:11.391Z,37.27
2018-02-15T09:43:39.676Z,36.57
2018-02-15T09:46:07.801Z,39.50
2018-02-15T09:48:35.926Z,36.90
2018-02-15T09:51:04.045Z,38.20
2018-02-15T09:53:32.348Z,41.47
2018-02-15T09:56:01.502Z,40.07
2018-02-15T09:58:29.643Z,40.50
2018-02-15T10:00:57.803Z,36.77
2018-02-15T10:03:25.914Z,36.93
2018-02-15T10:05:54.064Z,35.40
2018-02-15T10:08:22.965Z,43.30
2018-02-15T10:10:51.882Z,39.30
2018-02-15T10:13:20.019Z,32.83
2018-02-15T10:15:48.229Z,38.03
2018-02-15T10:18:17.331Z,45.53
2018-02-15T10:20:45.478Z,44.80
2018-02-15T10:23:13.648Z,41.03
2018-02-15T10:25:41.868Z,40.67
2018-02-15T10:28:10.088Z,38.37
2018-02-15T10:30:38.272Z,41.83
2018-02-15T10:33:06.452Z,39.17
2018-02-15T13:33:25.075Z,28.47
2018-02-15T13:36:20.608Z,40.80
2018-02-15T13:49:38.481Z,43.03
2018-02-15T13:52:27.143Z,34.83
2018-02-15T13:58:12.755Z,30.30
2018-02-15T14:00:40.896Z,37.37
2018-02-15T14:03:08.985Z,37.20
2018-02-15T14:05:39.251Z,37.37
2018-02-15T14:08:07.398Z,33.67
2018-02-15T14:10:35.551Z,35.33
2018-02-15T14:13:03.674Z,37.33
2018-02-15T14:15:32.617Z,39.40
2018-02-15T14:18:00.691Z,42.70
2018-02-15T14:20:28.820Z,37.37
2018-02-15T14:22:57.699Z,36.73
2018-02-15T14:25:26.572Z,36.77
2018-02-15T14:27:54.685Z,49.37
2018-02-15T14:30:22.772Z,43.17
2018-02-15T14:32:50.879Z,48.97
2018-02-15T14:35:18.967Z,40.50
2018-02-15T14:37:47.067Z,50.27
2018-02-15T14:40:30.802Z,46.30
2018-02-15T14:42:58.896Z,40.07
2018-02-15T14:45:27.036Z,40.77
2018-02-15T14:47:55.900Z,43.20
2018-02-15T14:50:23.996Z,41.27
2018-02-15T14:52:52.076Z,46.03
2018-02-15T14:55:20.958Z,47.03
2018-02-15T14:57:49.107Z,43.13
2018-02-15T15:00:20.402Z,42.33
2018-02-15T15:03:13.294Z,40.23
2018-02-15T15:05:56.559Z,43.90
2018-02-15T15:08:24.755Z,46.03
2018-02-15T15:10:58.717Z,48.07
2018-02-15T15:13:30.431Z,53.83
2018-02-15T15:19:11.446Z,42.43
2018-02-15T15:21:40.529Z,38.27
2018-02-15T15:24:15.553Z,43.97
2018-02-15T15:32:33.162Z,41.37
2018-02-15T15:38:08.044Z,45.50
2018-02-15T15:40:36.187Z,48.10
2018-02-15T15:43:05.409Z,46.07
2018-02-15T15:45:33.537Z,46.23
2018-02-15T15:48:01.707Z,45.10
2018-02-15T15:50:29.869Z,46.10
2018-02-15T15:52:58.016Z,40.90
2018-02-15T15:55:27.031Z,55.33
2018-02-15T15:57:55.892Z,43.77
2018-02-15T16:00:24.840Z,43.07
2018-02-15T16:02:52.933Z,53.90
2018-02-15T16:05:21.020Z,50.60
2018-02-15T16:07:49.157Z,52.20
2018-02-15T16:10:17.232Z,48.63
2018-02-15T16:12:45.339Z,48.80
2018-02-15T16:15:13.452Z,54.07
2018-02-15T16:17:41.569Z,57.97
2018-02-15T16:20:09.672Z,55.50
2018-02-15T16:22:37.874Z,55.00
2018-02-15T16:25:05.969Z,61.50
2018-02-15T16:27:34.094Z,53.87
2018-02-15T16:30:11.426Z,54.60
2018-02-15T16:32:41.452Z,51.10
2018-02-15T16:41:53.511Z,48.50
2018-02-15T16:44:21.604Z,55.30
2018-02-15T16:46:49.710Z,45.30
2018-02-15T16:49:17.921Z,56.37
2018-02-15T16:51:46.400Z,59.10
2018-02-15T16:54:14.519Z,62.70
2018-02-15T16:56:42.633Z,54.63
2018-02-15T16:59:10.752Z,55.13
2018-02-15T17:01:38.850Z,54.13
2018-02-15T17:04:07.001Z,54.13
2018-02-15T17:06:35.057Z,51.97
2018-02-15T17:09:03.369Z,56.87
2018-02-15T17:11:31.451Z,54.53
2018-02-15T17:13:59.576Z,64.17
2018-02-15T17:16:27.691Z,67.17
2018-02-15T17:18:55.888Z,57.33
2018-02-15T17:21:24.028Z,61.93
2018-02-15T17:23:52.925Z,60.33
2018-02-15T17:26:22.376Z,60.63
2018-02-15T17:28:50.645Z,56.10
2018-02-15T17:31:19.052Z,62.97
2018-02-15T17:33:47.162Z,56.97
2018-02-15T17:36:15.258Z,59.97
2018-02-15T17:38:44.967Z,62.73
2018-02-15T17:41:13.069Z,61.30
2018-02-15T17:43:41.564Z,58.77
2018-02-15T17:46:09.665Z,60.77
2018-02-15T17:48:38.543Z,77.87
2018-02-15T17:51:06.640Z,73.67
2018-02-15T17:53:34.758Z,75.20
2018-02-15T17:56:04.084Z,56.73
2018-02-15T17:58:33.039Z,61.37
2018-02-15T18:01:02.182Z,79.70
2018-02-15T18:03:31.128Z,71.37
2018-02-15T18:05:59.279Z,62.93
2018-02-15T18:08:27.552Z,65.77
2018-02-15T18:10:55.683Z,77.37
2018-02-15T18:13:24.569Z,53.03
2018-02-15T18:15:53.793Z,58.40
2018-02-15T18:18:21.955Z,58.87
2018-02-15T18:20:50.134Z,50.83
2018-02-15T18:23:20.590Z,55.07
2018-02-15T18:25:48.725Z,59.43
2018-02-15T18:28:16.813Z,51.37
2018-02-15T18:30:44.935Z,52.90
2018-02-15T18:33:13.817Z,51.43
2018-02-15T18:35:44.929Z,50.00
2018-02-15T18:38:15.997Z,56.30
2018-02-15T18:40:44.227Z,62.47
2018-02-15T18:43:12.386Z,50.77
2018-02-15T18:45:40.489Z,61.00
2018-02-15T18:48:09.376Z,52.40
2018-02-15T18:50:37.487Z,67.17
2018-02-15T18:53:05.613Z,56.43
2018-02-15T18:55:33.694Z,62.40
2018-02-15T18:58:02.584Z,58.63
2018-02-15T19:00:47.550Z,48.00
2018-02-15T19:03:49.691Z,51.83
2018-02-15T19:06:17.800Z,46.10
2018-02-15T19:08:46.684Z,56.77
2018-02-15T19:11:15.700Z,57.10
2018-02-15T19:13:43.829Z,58.63
2018-02-15T19:16:11.958Z,63.17
2018-02-15T19:18:40.056Z,53.73
2018-02-15T19:21:08.169Z,57.57
2018-02-15T19:23:37.065Z,66.03
2018-02-15T19:26:05.921Z,71.93
2018-02-15T19:28:34.064Z,65.47
2018-02-15T19:31:03.289Z,65.07
2018-02-15T19:33:31.368Z,68.97
2018-02-15T19:35:59.547Z,62.53
2018-02-15T19:38:27.667Z,71.70
2018-02-15T19:40:55.972Z,52.60
2018-02-15T19:43:24.122Z,56.57
2018-02-15T19:45:52.228Z,66.17
2018-02-15T19:48:20.324Z,79.93
2018-02-15T19:50:49.210Z,66.63
2018-02-15T19:53:17.310Z,74.20
2018-02-15T19:55:45.448Z,95.30
2018-02-15T19:58:13.560Z,73.07
2018-02-15T20:00:46.105Z,125.73
2018-02-15T20:03:14.238Z,100.10
2018-02-15T20:05:43.243Z,76.67
2018-02-15T20:08:11.723Z,171.60
2018-02-15T20:10:40.134Z,177.67
2018-02-15T20:13:08.340Z,93.53
2018-02-15T20:15:41.966Z,115.37
2018-02-15T20:18:13.746Z,78.33
2018-02-15T20:20:49.268Z,71.70
2018-02-15T20:23:19.877Z,64.80
2018-02-15T20:26:08.389Z,53.73
2018-02-15T20:28:57.040Z,56.47
2018-02-15T20:31:40.255Z,54.83
2018-02-15T20:34:09.595Z,51.30
2018-02-15T20:36:38.562Z,70.47
2018-02-15T20:39:12.235Z,65.63
2018-02-15T20:41:40.376Z,47.73
2018-02-15T20:44:09.220Z,58.60
2018-02-15T20:46:37.315Z,45.17
2018-02-15T20:49:10.931Z,54.03
2018-02-15T20:51:44.490Z,37.97
2018-02-15T20:54:18.131Z,38.00
2018-02-15T20:56:47.021Z,30.33
2018-02-15T20:59:15.876Z,33.37
2018-02-15T21:01:44.000Z,25.67
2018-02-15T21:04:12.093Z,31.67
2018-02-15T21:06:40.197Z,24.47
2018-02-15T21:09:08.341Z,26.57
2018-02-15T21:11:36.435Z,22.63
2018-02-15T21:14:04.528Z,28.20
2018-02-15T21:16:32.659Z,43.67
2018-02-15T21:19:00.755Z,30.93
2018-02-15T21:21:28.862Z,26.67
2018-02-15T21:23:57.740Z,23.70
2018-02-15T21:26:25.846Z,23.03
2018-02-15T21:28:54.702Z,26.37
2018-02-15T21:31:22.815Z,21.77
2018-02-15T21:33:50.930Z,22.87
2018-02-15T21:36:19.012Z,26.33
2018-02-15T21:38:47.150Z,61.70
2018-02-15T21:41:15.227Z,36.00
2018-02-15T21:43:43.336Z,31.77
2018-02-15T21:46:12.374Z,25.83
2018-02-15T21:48:41.382Z,32.47
2018-02-15T21:51:09.497Z,19.40
2018-02-15T21:53:37.600Z,17.13
2018-02-15T21:56:06.465Z,18.10
2018-02-15T21:58:34.577Z,24.73
2018-02-15T22:01:02.670Z,18.20
2018-02-15T22:03:30.768Z,41.17
2018-02-15T22:05:58.864Z,34.93
2018-02-15T22:08:27.011Z,31.87
2018-02-15T22:10:55.134Z,54.73
2018-02-15T22:13:23.242Z,50.83
2018-02-15T22:15:51.332Z,46.47
2018-02-15T22:18:19.427Z,39.33
2018-02-15T22:20:48.311Z,35.40
2018-02-15T22:23:17.184Z,39.37
2018-02-15T22:25:45.297Z,47.03
2018-02-15T22:28:14.148Z,33.13
2018-02-15T22:30:42.253Z,29.90
2018-02-15T22:33:10.330Z,38.00
2018-02-15T22:35:38.443Z,32.57
2018-02-15T22:38:06.557Z,42.70
2018-02-15T22:40:34.677Z,33.47
2018-02-15T22:43:02.777Z,36.70
2018-02-15T22:45:30.905Z,44.60
2018-02-15T22:47:59.317Z,43.43
2018-02-15T22:50:27.517Z,52.03
2018-02-15T22:53:03.368Z,56.13
2018-02-15T22:55:33.730Z,60.27
2018-02-15T22:58:05.245Z,54.47
2018-02-15T23:00:35.805Z,41.80
2018-02-15T23:03:03.944Z,41.67
2018-02-15T23:05:32.740Z,55.83
2018-02-15T23:08:05.258Z,49.20
2018-02-15T23:10:36.218Z,38.97
2018-02-15T23:13:04.306Z,70.07
2018-02-15T23:15:32.411Z,61.50
2018-02-15T23:18:00.503Z,61.57
2018-02-15T23:20:29.354Z,59.73
2018-02-15T23:22:57.455Z,45.33
2018-02-15T23:25:26.292Z,61.33
2018-02-15T23:27:54.383Z,45.20
2018-02-15T23:30:22.476Z,71.13
2018-02-15T23:32:50.600Z,58.83
2018-02-15T23:35:19.639Z,68.73
2018-02-15T23:37:47.745Z,73.13
2018-02-15T23:40:15.867Z,47.30
2018-02-15T23:42:45.867Z,62.07
2018-02-15T23:45:16.777Z,49.87
2018-02-15T23:47:45.886Z,69.67
2018-02-15T23:50:14.108Z,56.80
2018-02-15T23:52:42.239Z,55.53
2018-02-15T23:55:13.227Z,64.43
2018-02-15T23:57:42.571Z,80.57
